sensor_id;sensor_type;location;lat;lon;timestamp;P1;durP1;ratioP1;P2;durP2;ratioP2
18532;SDS011;9396;51.510;11.934;2023-12-07T00:01:40;15.43;;;13.07;;
18532;SDS011;9396;51.510;11.934;2023-12-07T00:04:05;15.70;;;12.20;;
18532;SDS011;9396;51.510;11.934;2023-12-07T00:06:32;13.80;;;11.90;;
18532;SDS011;9396;51.510;11.934;2023-12-07T00:08:59;13.07;;;11.50;;
18532;SDS011;9396;51.510;11.934;2023-12-07T00:11:26;14.00;;;11.33;;
18532;SDS011;9396;51.510;11.934;2023-12-07T00:13:53;14.63;;;12.50;;
18532;SDS011;9396;51.510;11.934;2023-12-07T00:16:19;13.67;;;11.60;;
18532;SDS011;9396;51.510;11.934;2023-12-07T00:18:47;14.43;;;12.43;;
18532;SDS011;9396;51.510;11.934;2023-12-07T00:21:14;16.03;;;12.07;;
18532;SDS011;9396;51.510;11.934;2023-12-07T00:23:41;13.53;;;11.83;;
18532;SDS011;9396;51.510;11.934;2023-12-07T00:26:07;15.63;;;13.27;;
18532;SDS011;9396;51.510;11.934;2023-12-07T00:28:35;16.60;;;13.00;;
18532;SDS011;9396;51.510;11.934;2023-12-07T00:31:02;17.83;;;13.27;;
18532;SDS011;9396;51.510;11.934;2023-12-07T00:33:29;15.80;;;12.57;;
18532;SDS011;9396;51.510;11.934;2023-12-07T00:35:57;14.30;;;11.97;;
18532;SDS011;9396;51.510;11.934;2023-12-07T00:38:24;17.03;;;13.60;;
18532;SDS011;9396;51.510;11.934;2023-12-07T00:40:50;15.57;;;13.33;;
18532;SDS011;9396;51.510;11.934;2023-12-07T00:43:17;16.20;;;13.10;;
18532;SDS011;9396;51.510;11.934;2023-12-07T00:45:44;16.33;;;12.93;;
18532;SDS011;9396;51.510;11.934;2023-12-07T00:48:10;17.67;;;13.87;;
18532;SDS011;9396;51.510;11.934;2023-12-07T00:50:37;16.90;;;13.17;;
18532;SDS011;9396;51.510;11.934;2023-12-07T00:53:05;16.70;;;13.50;;
18532;SDS011;9396;51.510;11.934;2023-12-07T00:55:32;16.97;;;12.70;;
18532;SDS011;9396;51.510;11.934;2023-12-07T00:57:59;14.63;;;12.90;;
18532;SDS011;9396;51.510;11.934;2023-12-07T01:00:27;15.63;;;12.80;;
18532;SDS011;9396;51.510;11.934;2023-12-07T01:02:53;14.97;;;12.77;;
18532;SDS011;9396;51.510;11.934;2023-12-07T01:05:20;14.70;;;12.70;;
18532;SDS011;9396;51.510;11.934;2023-12-07T01:07:47;17.70;;;13.50;;
18532;SDS011;9396;51.510;11.934;2023-12-07T01:10:15;17.33;;;12.93;;
18532;SDS011;9396;51.510;11.934;2023-12-07T01:12:42;14.73;;;12.50;;
18532;SDS011;9396;51.510;11.934;2023-12-07T01:15:08;15.90;;;13.50;;
18532;SDS011;9396;51.510;11.934;2023-12-07T01:17:35;16.03;;;13.00;;
18532;SDS011;9396;51.510;11.934;2023-12-07T01:20:03;15.17;;;12.77;;
18532;SDS011;9396;51.510;11.934;2023-12-07T01:22:32;15.60;;;12.87;;
18532;SDS011;9396;51.510;11.934;2023-12-07T01:24:59;15.10;;;12.60;;
18532;SDS011;9396;51.510;11.934;2023-12-07T01:27:27;14.73;;;12.73;;
18532;SDS011;9396;51.510;11.934;2023-12-07T01:29:53;16.03;;;13.20;;
18532;SDS011;9396;51.510;11.934;2023-12-07T01:32:20;18.50;;;13.63;;
18532;SDS011;9396;51.510;11.934;2023-12-07T01:34:47;15.70;;;14.00;;
18532;SDS011;9396;51.510;11.934;2023-12-07T01:37:13;15.87;;;13.43;;
18532;SDS011;9396;51.510;11.934;2023-12-07T01:39:41;16.70;;;12.97;;
18532;SDS011;9396;51.510;11.934;2023-12-07T01:42:08;16.90;;;14.23;;
18532;SDS011;9396;51.510;11.934;2023-12-07T01:44:37;18.03;;;14.93;;
18532;SDS011;9396;51.510;11.934;2023-12-07T01:47:05;19.47;;;14.67;;
18532;SDS011;9396;51.510;11.934;2023-12-07T01:49:33;19.40;;;15.03;;
18532;SDS011;9396;51.510;11.934;2023-12-07T01:52:00;17.83;;;14.73;;
18532;SDS011;9396;51.510;11.934;2023-12-07T01:54:27;20.87;;;15.03;;
18532;SDS011;9396;51.510;11.934;2023-12-07T01:56:55;19.17;;;15.33;;
18532;SDS011;9396;51.510;11.934;2023-12-07T01:59:22;21.30;;;15.77;;
18532;SDS011;9396;51.510;11.934;2023-12-07T02:01:50;21.83;;;15.73;;
18532;SDS011;9396;51.510;11.934;2023-12-07T02:04:17;22.47;;;16.00;;
18532;SDS011;9396;51.510;11.934;2023-12-07T02:06:44;19.70;;;15.87;;
18532;SDS011;9396;51.510;11.934;2023-12-07T02:09:11;19.23;;;14.40;;
18532;SDS011;9396;51.510;11.934;2023-12-07T02:11:37;19.33;;;15.17;;
18532;SDS011;9396;51.510;11.934;2023-12-07T02:14:04;19.70;;;15.50;;
18532;SDS011;9396;51.510;11.934;2023-12-07T02:16:31;20.10;;;15.43;;
18532;SDS011;9396;51.510;11.934;2023-12-07T02:19:09;20.20;;;15.37;;
18532;SDS011;9396;51.510;11.934;2023-12-07T02:21:50;23.33;;;15.97;;
18532;SDS011;9396;51.510;11.934;2023-12-07T02:24:22;19.37;;;15.10;;
18532;SDS011;9396;51.510;11.934;2023-12-07T02:26:54;19.80;;;16.07;;
18532;SDS011;9396;51.510;11.934;2023-12-07T02:29:21;21.07;;;15.77;;
18532;SDS011;9396;51.510;11.934;2023-12-07T02:31:48;20.67;;;16.83;;
18532;SDS011;9396;51.510;11.934;2023-12-07T02:34:15;21.17;;;17.17;;
18532;SDS011;9396;51.510;11.934;2023-12-07T02:40:05;20.83;;;15.57;;
18532;SDS011;9396;51.510;11.934;2023-12-07T02:42:37;21.17;;;15.90;;
18532;SDS011;9396;51.510;11.934;2023-12-07T02:45:05;21.17;;;15.67;;
18532;SDS011;9396;51.510;11.934;2023-12-07T02:47:32;20.17;;;15.73;;
18532;SDS011;9396;51.510;11.934;2023-12-07T02:49:59;19.03;;;15.00;;
18532;SDS011;9396;51.510;11.934;2023-12-07T02:52:26;20.17;;;15.83;;
18532;SDS011;9396;51.510;11.934;2023-12-07T02:54:53;20.60;;;16.10;;
18532;SDS011;9396;51.510;11.934;2023-12-07T02:57:20;19.90;;;15.70;;
18532;SDS011;9396;51.510;11.934;2023-12-07T02:59:48;19.67;;;15.90;;
18532;SDS011;9396;51.510;11.934;2023-12-07T03:02:15;19.83;;;15.00;;
18532;SDS011;9396;51.510;11.934;2023-12-07T03:04:42;20.83;;;15.93;;
18532;SDS011;9396;51.510;11.934;2023-12-07T03:07:08;19.03;;;15.67;;
18532;SDS011;9396;51.510;11.934;2023-12-07T03:12:57;21.37;;;15.97;;
18532;SDS011;9396;51.510;11.934;2023-12-07T03:15:24;20.10;;;14.73;;
18532;SDS011;9396;51.510;11.934;2023-12-07T03:17:51;21.13;;;16.07;;
18532;SDS011;9396;51.510;11.934;2023-12-07T03:20:18;20.87;;;15.90;;
18532;SDS011;9396;51.510;11.934;2023-12-07T03:22:45;20.17;;;15.43;;
18532;SDS011;9396;51.510;11.934;2023-12-07T03:25:11;20.07;;;15.93;;
18532;SDS011;9396;51.510;11.934;2023-12-07T03:27:38;20.50;;;15.33;;
18532;SDS011;9396;51.510;11.934;2023-12-07T03:30:05;21.73;;;16.77;;
18532;SDS011;9396;51.510;11.934;2023-12-07T03:32:34;21.50;;;16.37;;
18532;SDS011;9396;51.510;11.934;2023-12-07T03:35:01;20.73;;;15.87;;
18532;SDS011;9396;51.510;11.934;2023-12-07T03:37:27;21.40;;;15.70;;
18532;SDS011;9396;51.510;11.934;2023-12-07T03:39:54;22.60;;;16.30;;
18532;SDS011;9396;51.510;11.934;2023-12-07T03:42:21;24.60;;;17.00;;
18532;SDS011;9396;51.510;11.934;2023-12-07T03:44:47;24.13;;;17.57;;
18532;SDS011;9396;51.510;11.934;2023-12-07T03:47:14;22.30;;;17.57;;
18532;SDS011;9396;51.510;11.934;2023-12-07T03:49:42;22.80;;;17.73;;
18532;SDS011;9396;51.510;11.934;2023-12-07T03:52:10;22.43;;;16.30;;
18532;SDS011;9396;51.510;11.934;2023-12-07T03:54:37;22.90;;;17.03;;
18532;SDS011;9396;51.510;11.934;2023-12-07T03:57:03;23.63;;;17.50;;
18532;SDS011;9396;51.510;11.934;2023-12-07T03:59:31;23.80;;;17.23;;
18532;SDS011;9396;51.510;11.934;2023-12-07T04:01:57;24.20;;;16.97;;
18532;SDS011;9396;51.510;11.934;2023-12-07T04:04:24;24.10;;;16.97;;
18532;SDS011;9396;51.510;11.934;2023-12-07T04:06:52;22.57;;;16.53;;
18532;SDS011;9396;51.510;11.934;2023-12-07T04:09:19;23.50;;;18.30;;
18532;SDS011;9396;51.510;11.934;2023-12-07T04:11:45;23.83;;;18.30;;
18532;SDS011;9396;51.510;11.934;2023-12-07T04:14:12;23.43;;;17.60;;
18532;SDS011;9396;51.510;11.934;2023-12-07T04:16:40;23.30;;;17.77;;
18532;SDS011;9396;51.510;11.934;2023-12-07T04:19:06;23.27;;;17.40;;
18532;SDS011;9396;51.510;11.934;2023-12-07T04:21:33;24.93;;;18.63;;
18532;SDS011;9396;51.510;11.934;2023-12-07T04:24:01;27.60;;;19.40;;
18532;SDS011;9396;51.510;11.934;2023-12-07T04:26:28;26.20;;;18.73;;
18532;SDS011;9396;51.510;11.934;2023-12-07T04:28:55;25.13;;;18.80;;
18532;SDS011;9396;51.510;11.934;2023-12-07T04:31:22;24.73;;;19.73;;
18532;SDS011;9396;51.510;11.934;2023-12-07T04:33:48;28.77;;;20.53;;
18532;SDS011;9396;51.510;11.934;2023-12-07T04:36:15;25.10;;;19.27;;
18532;SDS011;9396;51.510;11.934;2023-12-07T04:38:42;25.53;;;18.70;;
18532;SDS011;9396;51.510;11.934;2023-12-07T04:41:10;26.07;;;19.67;;
18532;SDS011;9396;51.510;11.934;2023-12-07T04:43:36;26.27;;;19.70;;
18532;SDS011;9396;51.510;11.934;2023-12-07T04:46:03;24.87;;;19.27;;
18532;SDS011;9396;51.510;11.934;2023-12-07T04:48:30;25.23;;;19.50;;
18532;SDS011;9396;51.510;11.934;2023-12-07T04:50:57;25.50;;;19.70;;
18532;SDS011;9396;51.510;11.934;2023-12-07T04:53:23;26.17;;;20.13;;
18532;SDS011;9396;51.510;11.934;2023-12-07T04:55:50;25.03;;;19.03;;
18532;SDS011;9396;51.510;11.934;2023-12-07T04:58:18;26.27;;;18.90;;
18532;SDS011;9396;51.510;11.934;2023-12-07T05:00:45;28.50;;;20.70;;
18532;SDS011;9396;51.510;11.934;2023-12-07T05:03:11;26.83;;;19.80;;
18532;SDS011;9396;51.510;11.934;2023-12-07T05:05:38;25.70;;;18.83;;
18532;SDS011;9396;51.510;11.934;2023-12-07T05:08:04;26.77;;;19.87;;
18532;SDS011;9396;51.510;11.934;2023-12-07T05:10:31;28.50;;;19.27;;
18532;SDS011;9396;51.510;11.934;2023-12-07T05:12:58;29.87;;;21.47;;
18532;SDS011;9396;51.510;11.934;2023-12-07T05:15:26;26.47;;;19.73;;
18532;SDS011;9396;51.510;11.934;2023-12-07T05:17:52;29.47;;;21.03;;
18532;SDS011;9396;51.510;11.934;2023-12-07T05:20:19;32.40;;;21.43;;
18532;SDS011;9396;51.510;11.934;2023-12-07T05:22:47;32.40;;;20.10;;
18532;SDS011;9396;51.510;11.934;2023-12-07T05:25:14;29.23;;;20.70;;
18532;SDS011;9396;51.510;11.934;2023-12-07T05:27:41;28.33;;;20.40;;
18532;SDS011;9396;51.510;11.934;2023-12-07T05:30:08;29.30;;;19.77;;
18532;SDS011;9396;51.510;11.934;2023-12-07T05:32:37;26.03;;;20.43;;
18532;SDS011;9396;51.510;11.934;2023-12-07T05:35:04;25.87;;;19.67;;
18532;SDS011;9396;51.510;11.934;2023-12-07T05:37:32;29.07;;;20.70;;
18532;SDS011;9396;51.510;11.934;2023-12-07T05:39:58;28.63;;;20.30;;
18532;SDS011;9396;51.510;11.934;2023-12-07T05:42:26;26.57;;;19.90;;
18532;SDS011;9396;51.510;11.934;2023-12-07T05:44:52;32.23;;;20.97;;
18532;SDS011;9396;51.510;11.934;2023-12-07T05:47:20;32.63;;;21.30;;
18532;SDS011;9396;51.510;11.934;2023-12-07T05:49:48;27.47;;;19.37;;
18532;SDS011;9396;51.510;11.934;2023-12-07T05:52:15;29.13;;;20.93;;
18532;SDS011;9396;51.510;11.934;2023-12-07T05:54:41;27.90;;;20.23;;
18532;SDS011;9396;51.510;11.934;2023-12-07T05:57:08;27.67;;;19.77;;
18532;SDS011;9396;51.510;11.934;2023-12-07T05:59:36;26.17;;;18.80;;
18532;SDS011;9396;51.510;11.934;2023-12-07T06:02:03;28.10;;;19.27;;
18532;SDS011;9396;51.510;11.934;2023-12-07T06:04:31;24.70;;;19.37;;
18532;SDS011;9396;51.510;11.934;2023-12-07T06:06:59;26.23;;;20.03;;
18532;SDS011;9396;51.510;11.934;2023-12-07T06:09:25;26.07;;;19.17;;
18532;SDS011;9396;51.510;11.934;2023-12-07T06:11:52;25.33;;;20.00;;
18532;SDS011;9396;51.510;11.934;2023-12-07T06:14:18;25.63;;;19.10;;
18532;SDS011;9396;51.510;11.934;2023-12-07T06:16:46;23.43;;;18.07;;
18532;SDS011;9396;51.510;11.934;2023-12-07T06:19:13;25.20;;;18.80;;
18532;SDS011;9396;51.510;11.934;2023-12-07T06:21:40;25.30;;;17.37;;
18532;SDS011;9396;51.510;11.934;2023-12-07T06:24:08;25.87;;;18.60;;
18532;SDS011;9396;51.510;11.934;2023-12-07T06:26:35;27.23;;;19.13;;
18532;SDS011;9396;51.510;11.934;2023-12-07T06:29:01;24.03;;;18.03;;
18532;SDS011;9396;51.510;11.934;2023-12-07T06:31:28;23.83;;;18.20;;
18532;SDS011;9396;51.510;11.934;2023-12-07T06:33:54;33.57;;;18.03;;
18532;SDS011;9396;51.510;11.934;2023-12-07T06:36:23;28.10;;;18.57;;
18532;SDS011;9396;51.510;11.934;2023-12-07T06:38:51;24.37;;;18.27;;
18532;SDS011;9396;51.510;11.934;2023-12-07T06:41:19;28.50;;;17.23;;
18532;SDS011;9396;51.510;11.934;2023-12-07T06:43:45;20.53;;;16.37;;
18532;SDS011;9396;51.510;11.934;2023-12-07T06:46:12;28.30;;;18.93;;
18532;SDS011;9396;51.510;11.934;2023-12-07T06:48:39;23.50;;;17.47;;
18532;SDS011;9396;51.510;11.934;2023-12-07T06:51:06;22.63;;;16.97;;
18532;SDS011;9396;51.510;11.934;2023-12-07T06:53:32;24.27;;;17.63;;
18532;SDS011;9396;51.510;11.934;2023-12-07T06:55:59;22.80;;;18.27;;
18532;SDS011;9396;51.510;11.934;2023-12-07T06:58:27;24.50;;;18.20;;
18532;SDS011;9396;51.510;11.934;2023-12-07T07:00:54;23.50;;;16.90;;
18532;SDS011;9396;51.510;11.934;2023-12-07T07:03:20;23.97;;;16.83;;
18532;SDS011;9396;51.510;11.934;2023-12-07T07:05:47;21.77;;;16.30;;
18532;SDS011;9396;51.510;11.934;2023-12-07T07:08:14;24.47;;;17.17;;
18532;SDS011;9396;51.510;11.934;2023-12-07T07:10:41;23.47;;;17.37;;
18532;SDS011;9396;51.510;11.934;2023-12-07T07:13:07;24.60;;;17.73;;
18532;SDS011;9396;51.510;11.934;2023-12-07T07:15:35;22.63;;;18.03;;
18532;SDS011;9396;51.510;11.934;2023-12-07T07:18:02;28.70;;;18.57;;
18532;SDS011;9396;51.510;11.934;2023-12-07T07:20:29;23.67;;;17.67;;
18532;SDS011;9396;51.510;11.934;2023-12-07T07:22:55;23.70;;;17.70;;
18532;SDS011;9396;51.510;11.934;2023-12-07T07:25:22;24.47;;;17.83;;
18532;SDS011;9396;51.510;11.934;2023-12-07T07:27:48;22.50;;;17.20;;
18532;SDS011;9396;51.510;11.934;2023-12-07T07:30:15;20.67;;;16.50;;
18532;SDS011;9396;51.510;11.934;2023-12-07T07:32:43;21.03;;;16.20;;
18532;SDS011;9396;51.510;11.934;2023-12-07T07:35:10;21.47;;;16.10;;
18532;SDS011;9396;51.510;11.934;2023-12-07T07:37:37;26.97;;;17.03;;
18532;SDS011;9396;51.510;11.934;2023-12-07T07:40:04;20.17;;;15.03;;
18532;SDS011;9396;51.510;11.934;2023-12-07T07:42:32;24.23;;;17.43;;
18532;SDS011;9396;51.510;11.934;2023-12-07T07:44:58;20.80;;;15.33;;
18532;SDS011;9396;51.510;11.934;2023-12-07T07:47:25;20.80;;;16.23;;
18532;SDS011;9396;51.510;11.934;2023-12-07T07:49:53;21.23;;;15.87;;
18532;SDS011;9396;51.510;11.934;2023-12-07T07:52:20;20.87;;;15.83;;
18532;SDS011;9396;51.510;11.934;2023-12-07T07:54:46;19.00;;;14.53;;
18532;SDS011;9396;51.510;11.934;2023-12-07T07:57:13;22.67;;;15.57;;
18532;SDS011;9396;51.510;11.934;2023-12-07T07:59:39;21.33;;;16.07;;
18532;SDS011;9396;51.510;11.934;2023-12-07T08:02:06;23.13;;;15.63;;
18532;SDS011;9396;51.510;11.934;2023-12-07T08:04:33;21.97;;;16.17;;
18532;SDS011;9396;51.510;11.934;2023-12-07T08:07:01;22.57;;;16.33;;
18532;SDS011;9396;51.510;11.934;2023-12-07T08:09:28;23.23;;;16.80;;
18532;SDS011;9396;51.510;11.934;2023-12-07T08:11:55;21.80;;;15.73;;
18532;SDS011;9396;51.510;11.934;2023-12-07T08:14:21;22.43;;;16.07;;
18532;SDS011;9396;51.510;11.934;2023-12-07T08:16:48;23.47;;;15.77;;
18532;SDS011;9396;51.510;11.934;2023-12-07T08:19:14;22.33;;;16.27;;
18532;SDS011;9396;51.510;11.934;2023-12-07T08:21:41;21.30;;;16.53;;
18532;SDS011;9396;51.510;11.934;2023-12-07T08:24:09;24.10;;;16.17;;
18532;SDS011;9396;51.510;11.934;2023-12-07T08:26:36;20.10;;;15.47;;
18532;SDS011;9396;51.510;11.934;2023-12-07T08:29:02;22.13;;;16.83;;
18532;SDS011;9396;51.510;11.934;2023-12-07T08:31:29;21.30;;;16.23;;
18532;SDS011;9396;51.510;11.934;2023-12-07T08:33:56;23.97;;;16.90;;
18532;SDS011;9396;51.510;11.934;2023-12-07T08:36:22;25.43;;;17.30;;
18532;SDS011;9396;51.510;11.934;2023-12-07T08:38:49;23.73;;;17.07;;
18532;SDS011;9396;51.510;11.934;2023-12-07T08:41:18;25.80;;;16.80;;
18532;SDS011;9396;51.510;11.934;2023-12-07T08:43:44;25.23;;;16.87;;
18532;SDS011;9396;51.510;11.934;2023-12-07T08:46:11;22.77;;;16.33;;
18532;SDS011;9396;51.510;11.934;2023-12-07T08:48:38;21.37;;;16.20;;
18532;SDS011;9396;51.510;11.934;2023-12-07T08:51:04;22.70;;;17.27;;
18532;SDS011;9396;51.510;11.934;2023-12-07T08:53:33;22.43;;;16.60;;
18532;SDS011;9396;51.510;11.934;2023-12-07T08:56:00;28.30;;;17.13;;
18532;SDS011;9396;51.510;11.934;2023-12-07T08:58:29;21.00;;;15.60;;
18532;SDS011;9396;51.510;11.934;2023-12-07T09:00:55;21.13;;;16.20;;
18532;SDS011;9396;51.510;11.934;2023-12-07T09:03:22;21.67;;;16.13;;
18532;SDS011;9396;51.510;11.934;2023-12-07T09:05:52;23.40;;;16.83;;
18532;SDS011;9396;51.510;11.934;2023-12-07T09:08:19;21.43;;;16.70;;
18532;SDS011;9396;51.510;11.934;2023-12-07T09:10:45;20.90;;;16.00;;
18532;SDS011;9396;51.510;11.934;2023-12-07T09:13:14;23.10;;;16.07;;
18532;SDS011;9396;51.510;11.934;2023-12-07T09:15:42;21.97;;;16.53;;
18532;SDS011;9396;51.510;11.934;2023-12-07T09:18:09;22.50;;;16.27;;
18532;SDS011;9396;51.510;11.934;2023-12-07T09:20:36;22.17;;;16.33;;
18532;SDS011;9396;51.510;11.934;2023-12-07T09:23:10;20.90;;;15.87;;
18532;SDS011;9396;51.510;11.934;2023-12-07T09:25:37;22.80;;;15.50;;
18532;SDS011;9396;51.510;11.934;2023-12-07T09:31:27;20.60;;;15.33;;
18532;SDS011;9396;51.510;11.934;2023-12-07T09:33:53;21.53;;;16.37;;
18532;SDS011;9396;51.510;11.934;2023-12-07T09:36:21;22.93;;;17.20;;
18532;SDS011;9396;51.510;11.934;2023-12-07T09:38:49;23.10;;;16.00;;
18532;SDS011;9396;51.510;11.934;2023-12-07T09:41:15;22.60;;;16.47;;
18532;SDS011;9396;51.510;11.934;2023-12-07T09:43:42;19.90;;;15.30;;
18532;SDS011;9396;51.510;11.934;2023-12-07T09:46:09;24.33;;;17.23;;
18532;SDS011;9396;51.510;11.934;2023-12-07T09:48:38;20.17;;;15.33;;
18532;SDS011;9396;51.510;11.934;2023-12-07T09:51:08;23.47;;;17.27;;
18532;SDS011;9396;51.510;11.934;2023-12-07T09:53:36;22.57;;;16.53;;
18532;SDS011;9396;51.510;11.934;2023-12-07T09:56:06;24.50;;;17.13;;
18532;SDS011;9396;51.510;11.934;2023-12-07T09:58:33;23.43;;;17.47;;
18532;SDS011;9396;51.510;11.934;2023-12-07T10:00:59;23.00;;;16.33;;
18532;SDS011;9396;51.510;11.934;2023-12-07T10:03:26;22.23;;;16.40;;
18532;SDS011;9396;51.510;11.934;2023-12-07T10:05:55;25.67;;;17.23;;
18532;SDS011;9396;51.510;11.934;2023-12-07T10:08:26;22.83;;;16.40;;
18532;SDS011;9396;51.510;11.934;2023-12-07T10:11:04;27.47;;;17.10;;
18532;SDS011;9396;51.510;11.934;2023-12-07T10:13:32;24.67;;;17.20;;
18532;SDS011;9396;51.510;11.934;2023-12-07T10:16:06;23.80;;;17.00;;
18532;SDS011;9396;51.510;11.934;2023-12-07T10:18:34;21.10;;;15.77;;
18532;SDS011;9396;51.510;11.934;2023-12-07T10:21:03;22.70;;;16.90;;
18532;SDS011;9396;51.510;11.934;2023-12-07T10:23:30;21.77;;;16.37;;
18532;SDS011;9396;51.510;11.934;2023-12-07T10:25:58;23.17;;;16.17;;
18532;SDS011;9396;51.510;11.934;2023-12-07T10:28:26;23.37;;;17.50;;
18532;SDS011;9396;51.510;11.934;2023-12-07T10:30:52;21.60;;;16.70;;
18532;SDS011;9396;51.510;11.934;2023-12-07T10:33:19;22.43;;;16.50;;
18532;SDS011;9396;51.510;11.934;2023-12-07T10:35:46;21.67;;;16.20;;
18532;SDS011;9396;51.510;11.934;2023-12-07T10:38:14;23.47;;;17.20;;
18532;SDS011;9396;51.510;11.934;2023-12-07T10:40:41;25.00;;;17.07;;
18532;SDS011;9396;51.510;11.934;2023-12-07T10:43:08;26.00;;;15.77;;
18532;SDS011;9396;51.510;11.934;2023-12-07T10:45:35;20.70;;;15.97;;
18532;SDS011;9396;51.510;11.934;2023-12-07T10:48:04;19.90;;;15.93;;
18532;SDS011;9396;51.510;11.934;2023-12-07T10:50:34;22.33;;;16.17;;
18532;SDS011;9396;51.510;11.934;2023-12-07T10:53:04;23.63;;;15.87;;
18532;SDS011;9396;51.510;11.934;2023-12-07T10:55:39;20.87;;;15.43;;
18532;SDS011;9396;51.510;11.934;2023-12-07T10:58:11;22.43;;;16.10;;
18532;SDS011;9396;51.510;11.934;2023-12-07T11:00:40;19.77;;;15.73;;
18532;SDS011;9396;51.510;11.934;2023-12-07T11:03:11;22.93;;;16.47;;
18532;SDS011;9396;51.510;11.934;2023-12-07T11:05:42;19.67;;;15.37;;
18532;SDS011;9396;51.510;11.934;2023-12-07T11:08:11;22.20;;;16.43;;
18532;SDS011;9396;51.510;11.934;2023-12-07T11:10:45;21.00;;;15.53;;
18532;SDS011;9396;51.510;11.934;2023-12-07T11:13:20;20.10;;;15.30;;
18532;SDS011;9396;51.510;11.934;2023-12-07T11:15:53;22.53;;;15.73;;
18532;SDS011;9396;51.510;11.934;2023-12-07T11:18:20;20.30;;;15.40;;
18532;SDS011;9396;51.510;11.934;2023-12-07T11:20:46;21.50;;;15.13;;
18532;SDS011;9396;51.510;11.934;2023-12-07T11:23:15;22.07;;;14.93;;
18532;SDS011;9396;51.510;11.934;2023-12-07T11:25:45;20.43;;;15.17;;
18532;SDS011;9396;51.510;11.934;2023-12-07T11:28:12;18.47;;;14.70;;
18532;SDS011;9396;51.510;11.934;2023-12-07T11:30:41;18.43;;;13.90;;
18532;SDS011;9396;51.510;11.934;2023-12-07T11:36:30;23.10;;;14.57;;
18532;SDS011;9396;51.510;11.934;2023-12-07T11:39:15;20.43;;;13.83;;
18532;SDS011;9396;51.510;11.934;2023-12-07T11:41:45;20.90;;;13.20;;
18532;SDS011;9396;51.510;11.934;2023-12-07T11:44:17;17.80;;;14.33;;
18532;SDS011;9396;51.510;11.934;2023-12-07T11:46:44;19.80;;;13.83;;
18532;SDS011;9396;51.510;11.934;2023-12-07T11:49:11;17.03;;;13.47;;
18532;SDS011;9396;51.510;11.934;2023-12-07T11:51:38;19.23;;;13.60;;
18532;SDS011;9396;51.510;11.934;2023-12-07T11:54:05;20.17;;;13.97;;
18532;SDS011;9396;51.510;11.934;2023-12-07T11:56:33;19.33;;;14.40;;
18532;SDS011;9396;51.510;11.934;2023-12-07T11:59:01;18.13;;;14.27;;
18532;SDS011;9396;51.510;11.934;2023-12-07T12:01:28;16.20;;;13.00;;
18532;SDS011;9396;51.510;11.934;2023-12-07T12:03:55;19.00;;;14.17;;
18532;SDS011;9396;51.510;11.934;2023-12-07T12:06:23;15.93;;;13.53;;
18532;SDS011;9396;51.510;11.934;2023-12-07T12:08:51;17.80;;;13.77;;
18532;SDS011;9396;51.510;11.934;2023-12-07T12:11:18;21.30;;;13.83;;
18532;SDS011;9396;51.510;11.934;2023-12-07T12:13:45;17.20;;;13.43;;
18532;SDS011;9396;51.510;11.934;2023-12-07T12:16:13;15.50;;;12.93;;
18532;SDS011;9396;51.510;11.934;2023-12-07T12:18:40;16.27;;;13.63;;
18532;SDS011;9396;51.510;11.934;2023-12-07T12:21:07;19.00;;;13.10;;
18532;SDS011;9396;51.510;11.934;2023-12-07T12:23:34;18.17;;;13.30;;
18532;SDS011;9396;51.510;11.934;2023-12-07T12:26:01;19.73;;;14.37;;
18532;SDS011;9396;51.510;11.934;2023-12-07T12:28:29;18.10;;;14.30;;
18532;SDS011;9396;51.510;11.934;2023-12-07T12:30:57;21.70;;;13.53;;
18532;SDS011;9396;51.510;11.934;2023-12-07T12:33:26;18.43;;;14.37;;
18532;SDS011;9396;51.510;11.934;2023-12-07T12:36:00;18.00;;;14.07;;
18532;SDS011;9396;51.510;11.934;2023-12-07T12:38:28;16.77;;;12.97;;
18532;SDS011;9396;51.510;11.934;2023-12-07T12:40:55;16.97;;;13.67;;
18532;SDS011;9396;51.510;11.934;2023-12-07T12:43:21;20.27;;;13.80;;
18532;SDS011;9396;51.510;11.934;2023-12-07T12:45:48;21.00;;;15.43;;
18532;SDS011;9396;51.510;11.934;2023-12-07T12:48:15;21.67;;;14.97;;
18532;SDS011;9396;51.510;11.934;2023-12-07T12:50:43;18.83;;;14.40;;
18532;SDS011;9396;51.510;11.934;2023-12-07T12:53:10;20.80;;;14.67;;
18532;SDS011;9396;51.510;11.934;2023-12-07T12:55:39;18.73;;;14.07;;
18532;SDS011;9396;51.510;11.934;2023-12-07T13:01:28;17.37;;;12.47;;
18532;SDS011;9396;51.510;11.934;2023-12-07T13:03:55;16.40;;;12.50;;
18532;SDS011;9396;51.510;11.934;2023-12-07T13:06:24;17.03;;;13.77;;
18532;SDS011;9396;51.510;11.934;2023-12-07T13:08:51;19.83;;;13.47;;
18532;SDS011;9396;51.510;11.934;2023-12-07T13:11:18;16.20;;;12.40;;
18532;SDS011;9396;51.510;11.934;2023-12-07T13:13:45;15.73;;;12.43;;
18532;SDS011;9396;51.510;11.934;2023-12-07T13:16:13;15.70;;;12.37;;
18532;SDS011;9396;51.510;11.934;2023-12-07T13:18:40;16.60;;;11.97;;
18532;SDS011;9396;51.510;11.934;2023-12-07T13:21:07;16.53;;;12.73;;
18532;SDS011;9396;51.510;11.934;2023-12-07T13:23:36;15.13;;;10.93;;
18532;SDS011;9396;51.510;11.934;2023-12-07T13:26:03;15.17;;;11.47;;
18532;SDS011;9396;51.510;11.934;2023-12-07T13:28:31;13.27;;;10.43;;
18532;SDS011;9396;51.510;11.934;2023-12-07T13:30:58;15.03;;;11.17;;
18532;SDS011;9396;51.510;11.934;2023-12-07T13:33:25;13.77;;;11.07;;
18532;SDS011;9396;51.510;11.934;2023-12-07T13:35:51;16.57;;;11.43;;
18532;SDS011;9396;51.510;11.934;2023-12-07T13:38:19;15.47;;;10.50;;
18532;SDS011;9396;51.510;11.934;2023-12-07T13:40:48;12.93;;;10.93;;
18532;SDS011;9396;51.510;11.934;2023-12-07T13:43:14;12.50;;;9.60;;
18532;SDS011;9396;51.510;11.934;2023-12-07T13:45:41;14.23;;;9.97;;
18532;SDS011;9396;51.510;11.934;2023-12-07T13:48:08;13.60;;;10.13;;
18532;SDS011;9396;51.510;11.934;2023-12-07T13:50:34;15.10;;;9.93;;
18532;SDS011;9396;51.510;11.934;2023-12-07T13:53:01;10.73;;;8.77;;
18532;SDS011;9396;51.510;11.934;2023-12-07T13:55:28;13.63;;;9.30;;
18532;SDS011;9396;51.510;11.934;2023-12-07T13:57:56;12.10;;;9.30;;
18532;SDS011;9396;51.510;11.934;2023-12-07T14:00:24;14.50;;;9.83;;
18532;SDS011;9396;51.510;11.934;2023-12-07T14:02:51;10.03;;;8.10;;
18532;SDS011;9396;51.510;11.934;2023-12-07T14:05:17;11.43;;;8.80;;
18532;SDS011;9396;51.510;11.934;2023-12-07T14:07:44;9.90;;;8.30;;
18532;SDS011;9396;51.510;11.934;2023-12-07T14:13:34;13.57;;;8.87;;
18532;SDS011;9396;51.510;11.934;2023-12-07T14:16:00;12.60;;;8.20;;
18532;SDS011;9396;51.510;11.934;2023-12-07T14:18:27;10.77;;;8.20;;
18532;SDS011;9396;51.510;11.934;2023-12-07T14:20:54;11.47;;;7.40;;
18532;SDS011;9396;51.510;11.934;2023-12-07T14:23:21;8.57;;;6.77;;
18532;SDS011;9396;51.510;11.934;2023-12-07T14:25:48;10.00;;;7.43;;
18532;SDS011;9396;51.510;11.934;2023-12-07T14:28:16;10.27;;;8.00;;
18532;SDS011;9396;51.510;11.934;2023-12-07T14:30:45;9.70;;;8.10;;
18532;SDS011;9396;51.510;11.934;2023-12-07T14:33:11;11.60;;;8.00;;
18532;SDS011;9396;51.510;11.934;2023-12-07T14:35:38;10.57;;;7.60;;
18532;SDS011;9396;51.510;11.934;2023-12-07T14:38:05;10.83;;;7.90;;
18532;SDS011;9396;51.510;11.934;2023-12-07T14:40:31;10.90;;;7.77;;
18532;SDS011;9396;51.510;11.934;2023-12-07T14:42:59;9.30;;;7.50;;
18532;SDS011;9396;51.510;11.934;2023-12-07T14:45:26;9.83;;;7.77;;